createdAt,value
2018-11-29T00:00:24.005Z,53.90
2018-11-29T00:02:52.748Z,58.23
2018-11-29T00:05:21.424Z,52.50
2018-11-29T00:07:50.115Z,51.07
2018-11-29T00:10:18.787Z,59.20
2018-11-29T00:12:47.467Z,54.23
2018-11-29T00:15:16.335Z,53.10
2018-11-29T00:17:45.019Z,53.23
2018-11-29T00:20:14.505Z,59.03
2018-11-29T00:22:43.925Z,54.00
2018-11-29T00:25:13.405Z,54.57
2018-11-29T00:27:42.185Z,55.30
2018-11-29T00:30:13.675Z,50.63
2018-11-29T00:32:42.406Z,50.67
2018-11-29T00:35:14.686Z,55.93
2018-11-29T00:37:43.405Z,52.40
2018-11-29T00:40:13.993Z,58.90
2018-11-29T00:42:42.675Z,52.97
2018-11-29T00:45:12.390Z,52.63
2018-11-29T00:47:41.090Z,54.10
2018-11-29T00:50:10.819Z,50.07
2018-11-29T00:52:40.206Z,50.27
2018-11-29T00:55:10.026Z,49.47
2018-11-29T00:57:38.888Z,55.27
2018-11-29T01:00:13.501Z,48.27
2018-11-29T01:02:42.189Z,49.00
2018-11-29T01:05:11.009Z,49.97
2018-11-29T01:07:40.202Z,51.93
2018-11-29T01:10:11.178Z,53.23
2018-11-29T01:12:40.224Z,59.30
2018-11-29T01:15:15.068Z,48.40
2018-11-29T01:17:44.402Z,54.07
2018-11-29T01:20:14.090Z,52.57
2018-11-29T01:22:42.838Z,53.67
2018-11-29T01:25:12.359Z,51.80
2018-11-29T01:27:41.664Z,53.27
2018-11-29T01:30:14.148Z,53.03
2018-11-29T01:32:42.871Z,54.57
2018-11-29T01:35:12.418Z,46.93
2018-11-29T01:37:41.092Z,48.10
2018-11-29T01:40:19.372Z,46.50
2018-11-29T01:43:03.867Z,56.13
2018-11-29T01:45:32.549Z,48.67
2018-11-29T01:48:01.349Z,58.13
2018-11-29T01:50:30.293Z,52.40
2018-11-29T01:52:58.987Z,50.67
2018-11-29T01:55:27.678Z,53.20
2018-11-29T01:57:56.345Z,53.93
2018-11-29T02:00:25.042Z,52.00
2018-11-29T02:02:53.763Z,48.93
2018-11-29T02:05:22.466Z,51.80
2018-11-29T02:07:51.132Z,47.60
2018-11-29T02:10:26.667Z,51.90
2018-11-29T02:12:55.608Z,50.67
2018-11-29T02:15:24.378Z,53.57
2018-11-29T02:17:53.046Z,48.00
2018-11-29T02:20:21.768Z,48.33
2018-11-29T02:22:50.464Z,47.57
2018-11-29T02:25:19.156Z,53.50
2018-11-29T02:27:47.839Z,45.27
2018-11-29T02:30:19.453Z,55.40
2018-11-29T02:32:48.223Z,54.80
2018-11-29T02:35:16.936Z,41.60
2018-11-29T02:37:45.606Z,48.93
2018-11-29T02:40:15.321Z,46.90
2018-11-29T02:42:44.420Z,42.57
2018-11-29T02:45:18.149Z,48.47
2018-11-29T02:47:46.827Z,44.27
2018-11-29T02:50:15.530Z,42.40
2018-11-29T02:52:44.333Z,47.33
2018-11-29T02:55:13.177Z,48.80
2018-11-29T02:57:42.003Z,46.87
2018-11-29T03:00:14.424Z,38.33
2018-11-29T03:02:43.291Z,41.40
2018-11-29T03:05:11.997Z,47.40
2018-11-29T03:07:40.710Z,44.60
2018-11-29T03:10:11.341Z,44.57
2018-11-29T03:12:40.089Z,38.70
2018-11-29T03:15:12.004Z,41.50
2018-11-29T03:17:40.674Z,46.97
2018-11-29T03:20:10.589Z,39.17
2018-11-29T03:22:39.310Z,41.73
2018-11-29T03:25:16.145Z,44.33
2018-11-29T03:27:44.993Z,39.70
2018-11-29T03:30:14.575Z,47.60
2018-11-29T03:32:43.238Z,42.43
2018-11-29T03:35:12.749Z,40.53
2018-11-29T03:37:41.425Z,39.03
2018-11-29T03:40:12.274Z,42.30
2018-11-29T03:42:40.938Z,39.17
2018-11-29T03:45:10.865Z,37.80
2018-11-29T03:47:39.577Z,42.37
2018-11-29T03:50:09.953Z,37.93
2018-11-29T03:52:38.651Z,38.17
2018-11-29T03:55:08.273Z,45.77
2018-11-29T03:57:37.295Z,40.53
2018-11-29T04:00:09.014Z,40.03
2018-11-29T04:02:37.742Z,41.47
2018-11-29T04:05:06.487Z,37.23
2018-11-29T04:07:35.278Z,41.40
2018-11-29T04:10:03.985Z,43.23
2018-11-29T04:12:32.682Z,45.10
2018-11-29T04:15:01.349Z,39.47
2018-11-29T04:17:30.060Z,35.50
2018-11-29T04:19:58.805Z,48.40
2018-11-29T04:22:27.470Z,41.47
2018-11-29T04:24:56.149Z,39.13
2018-11-29T04:27:24.985Z,47.10
2018-11-29T04:29:53.648Z,40.00
2018-11-29T04:32:22.326Z,44.80
2018-11-29T04:34:50.998Z,40.43
2018-11-29T04:37:19.682Z,35.23
2018-11-29T04:39:48.394Z,34.77
2018-11-29T04:42:17.099Z,36.30
2018-11-29T04:44:45.751Z,41.90
2018-11-29T04:47:14.538Z,36.77
2018-11-29T04:49:43.471Z,35.80
2018-11-29T04:52:12.419Z,43.87
2018-11-29T04:54:41.092Z,37.77
2018-11-29T04:57:09.780Z,37.03
2018-11-29T04:59:38.421Z,38.83
2018-11-29T05:02:07.137Z,33.30
2018-11-29T05:04:35.813Z,35.87
2018-11-29T05:07:04.533Z,37.00
2018-11-29T05:09:33.195Z,30.47
2018-11-29T05:12:01.877Z,34.80
2018-11-29T05:14:30.825Z,40.17
2018-11-29T05:16:59.565Z,36.00
2018-11-29T05:19:28.384Z,30.50
2018-11-29T05:21:57.054Z,32.90
2018-11-29T05:24:25.705Z,36.30
2018-11-29T05:26:54.409Z,35.80
2018-11-29T05:29:23.065Z,34.30
2018-11-29T05:31:51.783Z,33.60
2018-11-29T05:34:20.522Z,33.63
2018-11-29T05:36:49.220Z,36.70
2018-11-29T05:39:17.918Z,33.23
2018-11-29T05:41:46.609Z,31.07
2018-11-29T05:44:15.276Z,30.90
2018-11-29T05:46:44.041Z,31.43
2018-11-29T05:49:13.297Z,36.43
2018-11-29T05:51:42.010Z,27.43
2018-11-29T05:54:10.805Z,32.00
2018-11-29T05:56:39.502Z,33.67
2018-11-29T05:59:08.196Z,30.17
2018-11-29T06:01:39.710Z,31.97
2018-11-29T06:04:08.440Z,34.37
2018-11-29T06:06:37.126Z,27.07
2018-11-29T06:09:08.514Z,34.60
2018-11-29T06:11:38.126Z,26.47
2018-11-29T06:14:07.754Z,31.17
2018-11-29T06:16:37.271Z,34.57
2018-11-29T06:19:07.366Z,31.90
2018-11-29T06:21:36.160Z,33.20
2018-11-29T06:24:05.173Z,32.53
2018-11-29T06:26:33.854Z,33.37
2018-11-29T06:29:02.533Z,27.53
2018-11-29T06:31:31.233Z,33.93
2018-11-29T06:33:59.909Z,32.13
2018-11-29T06:36:28.719Z,34.83
2018-11-29T06:38:57.389Z,33.30
2018-11-29T06:41:26.099Z,33.23
2018-11-29T06:43:54.763Z,28.50
2018-11-29T06:46:23.439Z,28.23
2018-11-29T06:48:52.367Z,32.20
2018-11-29T06:51:21.034Z,33.57
2018-11-29T06:53:55.113Z,30.47
2018-11-29T06:56:24.000Z,30.03
2018-11-29T06:58:52.687Z,30.47
2018-11-29T07:01:21.349Z,34.50
2018-11-29T07:03:50.040Z,36.20
2018-11-29T07:06:18.807Z,32.00
2018-11-29T07:08:47.467Z,33.27
2018-11-29T07:11:16.149Z,35.17
2018-11-29T07:13:44.847Z,29.60
2018-11-29T07:16:13.614Z,30.97
2018-11-29T07:18:42.363Z,27.67
2018-11-29T07:21:22.508Z,31.00
2018-11-29T07:23:51.199Z,29.17
2018-11-29T07:26:19.895Z,26.07
2018-11-29T07:28:48.550Z,33.87
2018-11-29T07:31:17.525Z,28.20
2018-11-29T07:33:46.191Z,29.40
2018-11-29T07:36:14.872Z,34.03
2018-11-29T07:38:43.674Z,25.87
2018-11-29T07:41:12.338Z,34.97
2018-11-29T07:43:41.016Z,28.10
2018-11-29T07:46:09.667Z,28.17
2018-11-29T07:48:38.390Z,32.67
2018-11-29T07:51:07.062Z,28.70
2018-11-29T07:53:35.777Z,35.47
2018-11-29T07:56:04.524Z,31.77
2018-11-29T07:58:33.195Z,31.40
2018-11-29T08:01:01.892Z,30.30
2018-11-29T08:03:30.656Z,30.20
2018-11-29T08:05:59.348Z,31.30
2018-11-29T08:08:28.140Z,32.13
2018-11-29T08:10:56.814Z,30.70
2018-11-29T08:13:25.638Z,37.23
2018-11-29T08:15:54.398Z,30.97
2018-11-29T08:18:23.110Z,29.63
2018-11-29T08:20:51.802Z,29.97
2018-11-29T08:23:20.479Z,30.70
2018-11-29T08:25:49.214Z,29.10
2018-11-29T08:28:17.916Z,32.07
2018-11-29T08:30:46.606Z,29.77
2018-11-29T08:33:15.272Z,34.97
2018-11-29T08:35:43.980Z,29.43
2018-11-29T08:38:12.717Z,26.40
2018-11-29T08:40:41.401Z,33.33
2018-11-29T08:43:10.074Z,36.87
2018-11-29T08:45:38.758Z,30.70
2018-11-29T08:48:07.730Z,27.23
2018-11-29T08:50:36.441Z,29.93
2018-11-29T08:53:05.671Z,30.77
2018-11-29T08:55:34.371Z,28.27
2018-11-29T08:58:03.063Z,32.63
2018-11-29T09:00:31.731Z,29.10
2018-11-29T09:03:00.423Z,29.23
2018-11-29T09:05:33.832Z,30.87
2018-11-29T09:07:57.769Z,31.00
2018-11-29T09:10:31.653Z,25.77
2018-11-29T09:12:55.317Z,27.77
2018-11-29T09:15:24.022Z,31.13
2018-11-29T09:17:52.697Z,30.20
2018-11-29T09:20:22.126Z,35.67
2018-11-29T09:22:50.802Z,31.47
2018-11-29T09:25:20.525Z,31.07
2018-11-29T09:27:49.271Z,27.37
2018-11-29T09:30:19.726Z,31.73
2018-11-29T09:32:49.324Z,25.23
2018-11-29T09:35:18.297Z,32.27
2018-11-29T09:37:47.001Z,33.50
2018-11-29T09:40:16.800Z,30.40
2018-11-29T09:42:45.739Z,25.93
2018-11-29T09:45:18.414Z,27.63
2018-11-29T09:47:48.309Z,29.50
2018-11-29T09:50:17.428Z,29.80
2018-11-29T09:52:46.092Z,30.27
2018-11-29T09:55:15.800Z,25.97
2018-11-29T09:57:44.898Z,28.73
2018-11-29T10:00:27.829Z,32.30
2018-11-29T10:03:24.842Z,28.07
2018-11-29T10:05:53.578Z,25.97
2018-11-29T10:08:26.131Z,28.70
2018-11-29T10:10:50.946Z,27.37
2018-11-29T10:13:19.596Z,25.97
2018-11-29T10:15:48.277Z,32.90
2018-11-29T10:18:16.985Z,29.87
2018-11-29T10:20:45.702Z,28.87
2018-11-29T10:23:14.499Z,29.57
2018-11-29T10:25:43.147Z,32.70
2018-11-29T10:28:14.276Z,27.87
2018-11-29T10:30:49.627Z,28.87
2018-11-29T10:33:18.291Z,31.47
2018-11-29T10:35:46.943Z,25.90
2018-11-29T10:38:15.825Z,27.47
2018-11-29T10:40:44.564Z,26.13
2018-11-29T10:43:13.261Z,30.87
2018-11-29T10:45:41.924Z,32.40
2018-11-29T10:48:13.201Z,27.67
2018-11-29T10:50:41.936Z,31.90
2018-11-29T10:53:10.651Z,29.27
2018-11-29T10:55:39.338Z,26.53
2018-11-29T10:58:08.060Z,27.30
2018-11-29T11:00:42.248Z,25.90
2018-11-29T11:03:16.361Z,24.87
2018-11-29T11:05:45.252Z,26.13
2018-11-29T11:08:14.334Z,29.37
2018-11-29T11:10:43.178Z,25.93
2018-11-29T11:13:11.890Z,29.83
2018-11-29T11:15:40.622Z,25.70
2018-11-29T11:18:10.421Z,25.57
2018-11-29T11:20:39.184Z,28.70
2018-11-29T11:23:07.948Z,28.73
2018-11-29T11:25:36.582Z,27.13
2018-11-29T11:28:06.919Z,34.67
2018-11-29T11:30:37.130Z,23.60
2018-11-29T11:33:06.502Z,25.83
2018-11-29T11:35:35.159Z,27.33
2018-11-29T11:38:03.872Z,29.37
2018-11-29T11:40:32.613Z,33.60
2018-11-29T11:43:05.049Z,27.77
2018-11-29T11:45:30.101Z,27.03
2018-11-29T11:48:03.167Z,20.73
2018-11-29T11:50:27.683Z,25.23
2018-11-29T11:52:56.458Z,29.23
2018-11-29T11:55:29.916Z,27.90
2018-11-29T11:57:53.932Z,25.27
2018-11-29T12:00:24.631Z,26.23
2018-11-29T12:03:03.603Z,24.23
2018-11-29T12:05:32.544Z,25.43
2018-11-29T12:08:01.319Z,26.80
2018-11-29T12:10:30.175Z,28.20
2018-11-29T12:12:58.865Z,21.97
2018-11-29T12:15:27.508Z,24.60
2018-11-29T12:17:56.191Z,22.40
2018-11-29T12:20:24.852Z,26.50
2018-11-29T12:22:53.598Z,24.47
2018-11-29T12:25:22.848Z,23.53
2018-11-29T12:27:52.151Z,23.53
2018-11-29T12:30:32.986Z,22.30
2018-11-29T12:33:03.931Z,25.53
2018-11-29T12:35:32.664Z,22.50
2018-11-29T12:38:01.344Z,20.27
2018-11-29T12:40:30.240Z,19.77
2018-11-29T12:42:58.930Z,18.43
2018-11-29T12:45:27.606Z,20.43
2018-11-29T12:47:56.306Z,19.63
2018-11-29T12:50:26.020Z,23.87
2018-11-29T12:52:54.699Z,26.00
2018-11-29T12:55:24.591Z,19.87
2018-11-29T13:00:22.992Z,24.10
2018-11-29T13:02:56.285Z,22.03
2018-11-29T13:03:02.505Z,22.00
2018-11-29T13:05:25.535Z,20.23
2018-11-29T13:07:54.224Z,21.13
2018-11-29T13:10:23.998Z,19.20
2018-11-29T13:12:52.966Z,20.27
2018-11-29T13:15:26.082Z,21.03
2018-11-29T13:17:55.477Z,20.03
2018-11-29T13:20:24.442Z,25.20
2018-11-29T13:22:53.141Z,23.53
2018-11-29T13:25:23.319Z,23.63
2018-11-29T13:27:52.138Z,19.70
2018-11-29T13:30:21.734Z,21.20
2018-11-29T13:32:52.399Z,19.70
2018-11-29T13:35:23.107Z,20.03
2018-11-29T13:37:54.973Z,19.40
2018-11-29T13:40:23.723Z,20.00
2018-11-29T13:42:52.483Z,20.73
2018-11-29T13:45:21.191Z,20.07
2018-11-29T13:47:49.921Z,19.10
2018-11-29T13:50:18.701Z,17.83
2018-11-29T13:52:47.468Z,24.20
2018-11-29T13:55:16.742Z,19.70
2018-11-29T13:57:46.518Z,21.77
2018-11-29T14:00:16.369Z,19.77
2018-11-29T14:02:47.108Z,19.10
2018-11-29T14:05:16.701Z,20.70
2018-11-29T14:07:45.392Z,18.00
2018-11-29T14:10:16.228Z,19.47
2018-11-29T14:12:45.597Z,19.30
2018-11-29T14:15:16.337Z,17.20
2018-11-29T14:17:45.029Z,18.57
2018-11-29T14:20:14.099Z,16.33
2018-11-29T14:22:42.838Z,19.03
2018-11-29T14:25:14.419Z,18.83
2018-11-29T14:27:45.360Z,18.90
2018-11-29T14:30:15.238Z,17.93
2018-11-29T14:32:43.897Z,17.00
2018-11-29T14:35:12.575Z,20.10
2018-11-29T14:37:41.804Z,18.87
2018-11-29T14:40:13.572Z,17.23
2018-11-29T14:42:42.309Z,17.17
2018-11-29T14:45:13.827Z,17.67
2018-11-29T14:47:42.498Z,18.80
2018-11-29T14:50:13.554Z,20.40
2018-11-29T14:52:42.250Z,23.90
2018-11-29T14:55:11.179Z,18.93
2018-11-29T14:57:39.886Z,21.87
2018-11-29T15:00:10.091Z,20.70
2018-11-29T15:02:38.802Z,19.20
2018-11-29T15:05:10.442Z,20.40
2018-11-29T15:07:39.157Z,20.90
2018-11-29T15:10:09.058Z,20.57
2018-11-29T15:12:37.922Z,18.30
2018-11-29T15:15:09.909Z,19.33
2018-11-29T15:17:39.293Z,19.57
2018-11-29T15:20:12.534Z,19.27
2018-11-29T15:22:41.252Z,19.77
2018-11-29T15:25:09.994Z,19.40
2018-11-29T15:27:38.666Z,17.00
2018-11-29T15:30:13.426Z,18.90
2018-11-29T15:32:42.187Z,19.53
2018-11-29T15:35:10.891Z,22.30
2018-11-29T15:37:39.581Z,17.90
2018-11-29T15:40:11.630Z,20.10
2018-11-29T15:42:40.352Z,17.87
2018-11-29T15:45:12.100Z,20.33
2018-11-29T15:47:41.124Z,21.67
2018-11-29T15:50:11.975Z,20.13
2018-11-29T15:52:40.983Z,18.77
2018-11-29T15:55:12.137Z,17.30
2018-11-29T15:57:41.090Z,21.87
2018-11-29T16:00:16.935Z,20.77
2018-11-29T16:02:46.472Z,15.60
2018-11-29T16:05:15.167Z,21.97
2018-11-29T16:07:43.940Z,18.73
2018-11-29T16:10:15.459Z,18.93
2018-11-29T16:12:44.334Z,17.80
2018-11-29T16:15:15.007Z,23.03
2018-11-29T16:17:44.036Z,17.87
2018-11-29T16:20:17.171Z,18.47
2018-11-29T16:22:45.637Z,17.70
2018-11-29T16:25:14.306Z,21.57
2018-11-29T16:27:43.005Z,19.80
2018-11-29T16:30:46.514Z,19.20
2018-11-29T16:33:17.169Z,18.70
2018-11-29T16:35:45.796Z,16.20
2018-11-29T16:38:14.602Z,15.27
2018-11-29T16:40:43.243Z,16.83
2018-11-29T16:43:11.946Z,16.13
2018-11-29T16:45:40.632Z,18.90
2018-11-29T16:48:09.319Z,19.73
2018-11-29T16:50:38.346Z,19.63
2018-11-29T16:53:07.491Z,15.40
2018-11-29T16:55:36.593Z,20.07
2018-11-29T16:58:08.163Z,17.30
2018-11-29T17:00:36.868Z,19.10
2018-11-29T17:03:05.882Z,14.97
2018-11-29T17:05:34.757Z,16.13
2018-11-29T17:08:03.606Z,14.77
2018-11-29T17:10:32.278Z,17.00
2018-11-29T17:13:02.636Z,17.67
2018-11-29T17:15:31.308Z,18.87
2018-11-29T17:17:59.995Z,17.07
2018-11-29T17:20:28.717Z,20.10
2018-11-29T17:22:57.363Z,13.60
2018-11-29T17:25:26.048Z,17.97
2018-11-29T17:27:54.730Z,16.70
2018-11-29T17:30:24.220Z,16.00
2018-11-29T17:32:55.824Z,19.20
2018-11-29T17:35:24.498Z,15.67
2018-11-29T17:37:54.486Z,19.00
2018-11-29T17:40:23.149Z,13.93
2018-11-29T17:42:53.144Z,13.93
2018-11-29T17:45:23.584Z,14.93
2018-11-29T17:47:53.658Z,13.90
2018-11-29T17:50:25.552Z,15.00
2018-11-29T17:52:54.254Z,12.97
2018-11-29T17:55:23.018Z,15.13
2018-11-29T17:57:51.814Z,14.27
2018-11-29T18:00:21.855Z,14.30
2018-11-29T18:02:50.508Z,12.90
2018-11-29T18:05:19.206Z,14.73
2018-11-29T18:07:47.907Z,13.97
2018-11-29T18:10:17.760Z,13.17
2018-11-29T18:12:48.252Z,11.97
2018-11-29T18:15:19.181Z,15.00
2018-11-29T18:17:47.835Z,15.43
2018-11-29T18:20:16.514Z,14.63
2018-11-29T18:22:45.213Z,11.53
2018-11-29T18:25:14.879Z,12.37
2018-11-29T18:27:45.003Z,16.87
2018-11-29T18:30:15.903Z,12.07
2018-11-29T18:32:44.803Z,11.00
2018-11-29T18:35:14.186Z,13.00
2018-11-29T18:37:43.081Z,14.03
2018-11-29T18:40:16.685Z,16.20
2018-11-29T18:42:46.663Z,12.27
2018-11-29T18:45:16.423Z,10.67
2018-11-29T18:47:48.240Z,14.27
2018-11-29T18:50:18.461Z,11.10
2018-11-29T18:52:47.265Z,13.93
2018-11-29T18:55:16.271Z,14.97
2018-11-29T18:57:44.977Z,16.03
2018-11-29T19:00:17.950Z,12.60
2018-11-29T19:02:46.703Z,11.67
2018-11-29T19:05:15.395Z,13.53
2018-11-29T19:07:44.143Z,12.17
2018-11-29T19:10:13.846Z,14.90
2018-11-29T19:12:45.732Z,11.50
2018-11-29T19:15:14.538Z,12.07
2018-11-29T19:17:43.203Z,13.23
2018-11-29T19:20:13.440Z,13.77
2018-11-29T19:22:41.874Z,14.17
2018-11-29T19:25:18.510Z,14.37
2018-11-29T19:27:47.214Z,13.33
2018-11-29T19:30:19.108Z,10.13
2018-11-29T19:32:50.513Z,10.33
2018-11-29T19:35:19.607Z,12.67
2018-11-29T19:37:48.314Z,13.43
2018-11-29T19:40:17.413Z,11.33
2018-11-29T19:42:46.062Z,13.07
2018-11-29T19:45:15.632Z,10.40
2018-11-29T19:47:44.338Z,11.47
2018-11-29T19:50:14.182Z,18.20
2018-11-29T19:52:43.900Z,10.73
2018-11-29T19:55:15.444Z,11.40
2018-11-29T19:57:44.092Z,15.30
2018-11-29T20:00:13.464Z,14.50
2018-11-29T20:02:43.418Z,15.13
2018-11-29T20:05:12.548Z,14.63
2018-11-29T20:07:41.402Z,13.53
2018-11-29T20:10:11.323Z,11.57
2018-11-29T20:12:40.027Z,13.17
2018-11-29T20:15:11.727Z,10.87
2018-11-29T20:17:40.833Z,13.70
2018-11-29T20:20:10.697Z,14.23
2018-11-29T20:22:39.686Z,14.40
2018-11-29T20:25:10.079Z,16.17
2018-11-29T20:27:38.916Z,13.10
2018-11-29T20:30:10.495Z,16.60
2018-11-29T20:32:39.224Z,13.00
2018-11-29T20:35:08.537Z,12.57
2018-11-29T20:37:37.229Z,15.13
2018-11-29T20:40:16.667Z,13.33
2018-11-29T20:42:46.503Z,14.97
2018-11-29T20:45:16.533Z,12.97
2018-11-29T20:47:45.449Z,13.43
2018-11-29T20:50:15.589Z,11.87
2018-11-29T20:52:44.698Z,15.43
2018-11-29T20:55:15.963Z,15.67
2018-11-29T20:57:44.901Z,15.93
2018-11-29T21:00:15.175Z,11.90
2018-11-29T21:02:44.052Z,15.87
2018-11-29T21:05:15.187Z,13.17
2018-11-29T21:07:45.200Z,17.60
2018-11-29T21:10:16.243Z,12.93
2018-11-29T21:12:44.893Z,12.23
2018-11-29T21:15:13.539Z,14.07
2018-11-29T21:17:42.207Z,16.03
2018-11-29T21:20:12.141Z,18.80
2018-11-29T21:22:41.539Z,13.10
2018-11-29T21:25:12.445Z,15.77
2018-11-29T21:27:41.237Z,15.50
2018-11-29T21:30:14.846Z,16.10
2018-11-29T21:32:43.661Z,15.47
2018-11-29T21:35:14.484Z,17.60
2018-11-29T21:37:44.273Z,17.37
2018-11-29T21:40:14.917Z,14.03
2018-11-29T21:42:43.635Z,13.70
2018-11-29T21:45:12.288Z,14.87
2018-11-29T21:47:41.109Z,13.30
2018-11-29T21:50:09.773Z,17.57
2018-11-29T21:52:38.489Z,15.30
2018-11-29T21:55:08.025Z,13.20
2018-11-29T21:57:37.134Z,13.50
2018-11-29T22:00:22.408Z,22.07
2018-11-29T22:02:55.907Z,15.23
2018-11-29T22:05:25.006Z,17.47
2018-11-29T22:07:54.202Z,16.77
2018-11-29T22:10:23.307Z,14.90
2018-11-29T22:12:52.389Z,16.70
2018-11-29T22:15:21.382Z,14.73
2018-11-29T22:18:31.030Z,17.03
2018-11-29T22:21:02.507Z,13.07
2018-11-29T22:23:32.689Z,14.70
2018-11-29T22:26:03.399Z,15.83
2018-11-29T22:28:32.738Z,13.53
2018-11-29T22:31:01.726Z,14.67
2018-11-29T22:33:30.826Z,12.93
2018-11-29T22:35:59.919Z,15.03
2018-11-29T22:38:29.012Z,13.07
2018-11-29T22:40:57.699Z,16.23
2018-11-29T22:43:26.348Z,12.53
2018-11-29T22:45:55.015Z,14.20
2018-11-29T22:48:23.716Z,13.33
2018-11-29T22:50:52.361Z,11.63
2018-11-29T22:53:21.030Z,16.80
2018-11-29T22:55:49.726Z,16.43
2018-11-29T22:58:18.403Z,18.77
2018-11-29T23:00:51.372Z,14.70
2018-11-29T23:03:20.216Z,13.87
2018-11-29T23:05:48.903Z,13.60
2018-11-29T23:08:17.573Z,14.20
2018-11-29T23:10:46.243Z,12.43
2018-11-29T23:13:14.927Z,14.13
2018-11-29T23:15:43.865Z,13.40
2018-11-29T23:18:12.568Z,15.43
2018-11-29T23:20:41.391Z,13.43
2018-11-29T23:23:10.121Z,13.47
2018-11-29T23:25:38.821Z,16.13
2018-11-29T23:28:07.518Z,12.80
2018-11-29T23:30:36.209Z,15.80
2018-11-29T23:33:04.918Z,15.20
2018-11-29T23:35:33.644Z,13.33
2018-11-29T23:38:02.302Z,10.77
2018-11-29T23:40:31.019Z,16.17
2018-11-29T23:42:59.674Z,14.93
2018-11-29T23:45:28.354Z,14.33
2018-11-29T23:47:57.005Z,12.77
2018-11-29T23:50:25.667Z,14.70
2018-11-29T23:52:54.345Z,11.87
2018-11-29T23:55:23.136Z,12.97
2018-11-29T23:57:51.867Z,13.67
